Chassell, MI

8:32 AM EST on November 28, 2014 (GMT -0500)
Gierke Blueberry Farm | Change Station
CLOSE
Current Station
Personal Weather Station
Location: Chassel, MI
Elevation: 730 ft
Nearby Weather Stations

Elev 730 ft 46.97 °N, 88.48 °W | Updated 7 minutes ago

Overcast
Overcast
6.7 °F
Feels Like 7 °F
N
0.0
Wind Variable Wind from SW
Gusts 2.9 mph

Today
High -- | Low -- °F
--% Chance of Precip.
Yesterday
High -- | Low -- °F
Precip. -- in
8:15 AM 5:08 PM
Waxing Crescent, 40% visible
Pressure 30.20 in
Visibility 10.0 miles
Clouds Overcast 9000 ft
Windchill 7 °F
Dew Point 3 °F
Humidity 83%
Rainfall -999.00 in
Snow Depth Not available.
UV 0 out of 12
Pollen .10 out of 12
Air Quality Not available.
Flu Activity Not available.
METAR KCMX 281253Z AUTO 22003KT 10SM OVC090 M14/M17 A3012 RMK AO2 SLP226 T11391172

More Conditions Fewer Conditions

Pressure 30.20 in
Visibility 10.0 miles
Clouds Overcast 9000 ft
Windchill 7 °F
Dew Point 3 °F
Humidity 83%
Rainfall -999.00 in
Snow Depth Not available.
UV 0 out of 12
Pollen .10 out of 12
Air Quality Not available.
Flu Activity Not available.
METAR KCMX 281253Z AUTO 22003KT 10SM OVC090 M14/M17 A3012 RMK AO2 SLP226 T11391172

More Conditions Fewer Conditions

10-Day Weather Forecast

Almanac

Astronomy

Nov. 28, 2014 Rise Set
Actual Time
Civil Twilight
Nautical Twilight
Astronomical Twilight
Moon
Length of Visible Light
Length of Day
Tomorrow will be .
, % of the Moon is Illuminated

Today's Extremes

State Highs State Lows

Community

WunderPhotos

Upload Photos

1,774,210 photos uploaded!

WunderBlogs® & News

Nearby

Air Quality

  Air Quality AQ Index Pollutant
Not available.

Snow Depth

Station Depth Elevation

Earthquake Activity

City Distance Mag. Time & Date
Minimum magnitude displayed is 2.5.

Coastal Water Temperatures

Place Temperature

Nearby Weather Stations